Terminal Aerodrome Forecast
Issued by NWS

Current Version | Previous Version | Text Only | Print | Product List | Glossary Off
Versions: 1 2 3 4 5 6 7 8 9 10 11 12 13 14 15 16 17 18 19

235
FTUS41 KPBZ 261138
TAFHLG
TAF
KHLG 261138Z 2612/2712 15012KT P6SM BKN100
     FM261800 16012G25KT 6SM -SHRA OVC035
     FM262200 16010G22KT 3SM -SHRA BR OVC015
     FM270900 18005KT P6SM VCSH OVC015=

USA.gov is the U.S. government's official web portal to all federal, state and local government web resources and services.